createdAt,value
2019-02-22T00:00:19.190Z,1032.27
2019-02-22T00:01:19.045Z,1032.29
2019-02-22T00:02:19.202Z,1032.25
2019-02-22T00:03:19.291Z,1032.25
2019-02-22T00:04:19.193Z,1032.26
2019-02-22T00:05:20.736Z,1032.25
2019-02-22T00:06:19.306Z,1032.23
2019-02-22T00:07:18.741Z,1032.28
2019-02-22T00:08:20.759Z,1032.27
2019-02-22T00:09:20.852Z,1032.3
2019-02-22T00:10:18.950Z,1032.34
2019-02-22T00:11:18.996Z,1032.34
2019-02-22T00:12:19.477Z,1032.33
2019-02-22T00:13:20.763Z,1032.28
2019-02-22T00:14:18.742Z,1032.3
2019-02-22T00:15:18.679Z,1032.25
2019-02-22T00:16:19.403Z,1032.25
2019-02-22T00:17:19.623Z,1032.31
2019-02-22T00:18:19.024Z,1032.33
2019-02-22T00:19:18.955Z,1032.4
2019-02-22T00:20:19.029Z,1032.39
2019-02-22T00:21:20.601Z,1032.36
2019-02-22T00:22:19.218Z,1032.4
2019-02-22T00:23:19.396Z,1032.42
2019-02-22T00:24:18.890Z,1032.43
2019-02-22T00:25:19.053Z,1032.47
2019-02-22T00:26:18.907Z,1032.42
2019-02-22T00:27:19.050Z,1032.44
2019-02-22T00:28:19.316Z,1032.43
2019-02-22T00:29:19.078Z,1032.48
2019-02-22T00:30:21.759Z,1032.47
2019-02-22T00:31:19.221Z,1032.49
2019-02-22T00:32:18.818Z,1032.53
2019-02-22T00:33:19.049Z,1032.54
2019-02-22T00:34:20.095Z,1032.57
2019-02-22T00:35:20.031Z,1032.55
2019-02-22T00:36:19.379Z,1032.54
2019-02-22T00:37:19.657Z,1032.57
2019-02-22T00:38:19.053Z,1032.58
2019-02-22T00:41:19.247Z,1032.64
2019-02-22T00:42:18.766Z,1032.61
2019-02-22T00:43:18.935Z,1032.67
2019-02-22T00:44:19.124Z,1032.61
2019-02-22T00:45:19.593Z,1032.59
2019-02-22T00:46:19.197Z,1032.64
2019-02-22T00:47:19.295Z,1032.66
2019-02-22T00:48:18.733Z,1032.66
2019-02-22T00:49:18.852Z,1032.62
2019-02-22T00:50:18.734Z,1032.63
2019-02-22T00:51:19.809Z,1032.6
2019-02-22T00:52:19.337Z,1032.55
2019-02-22T00:53:18.882Z,1032.57
2019-02-22T00:54:18.958Z,1032.54
2019-02-22T00:55:19.017Z,1032.57
2019-02-22T00:56:19.778Z,1032.54
2019-02-22T00:57:19.596Z,1032.5
2019-02-22T00:58:19.292Z,1032.51
2019-02-22T00:59:18.761Z,1032.53
2019-02-22T01:00:19.081Z,1032.51
2019-02-22T01:01:19.052Z,1032.5
2019-02-22T01:02:19.321Z,1032.52
2019-02-22T01:03:19.122Z,1032.54
2019-02-22T01:04:19.118Z,1032.57
2019-02-22T01:05:18.933Z,1032.56
2019-02-22T01:06:19.224Z,1032.54
2019-02-22T01:07:19.046Z,1032.54
2019-02-22T01:08:18.919Z,1032.55
2019-02-22T01:09:19.052Z,1032.51
2019-02-22T01:10:18.856Z,1032.54
2019-02-22T01:11:19.482Z,1032.56
2019-02-22T01:12:19.063Z,1032.57
2019-02-22T01:13:18.790Z,1032.57
2019-02-22T01:14:19.338Z,1032.62
2019-02-22T01:15:19.311Z,1032.63
2019-02-22T01:16:18.892Z,1032.64
2019-02-22T01:17:18.838Z,1032.64
2019-02-22T01:18:18.897Z,1032.67
2019-02-22T01:19:20.365Z,1032.67
2019-02-22T01:20:18.994Z,1032.64
2019-02-22T01:21:19.297Z,1032.68
2019-02-22T01:22:19.143Z,1032.66
2019-02-22T01:23:19.274Z,1032.68
2019-02-22T01:24:18.998Z,1032.67
2019-02-22T01:25:18.878Z,1032.66
2019-02-22T01:26:20.798Z,1032.72
2019-02-22T01:27:18.698Z,1032.73
2019-02-22T01:28:19.619Z,1032.74
2019-02-22T01:29:18.963Z,1032.73
2019-02-22T01:30:19.025Z,1032.72
2019-02-22T01:31:19.076Z,1032.75
2019-02-22T01:32:19.045Z,1032.72
2019-02-22T01:33:18.855Z,1032.76
2019-02-22T01:34:20.817Z,1032.74
2019-02-22T01:35:18.893Z,1032.72
2019-02-22T01:36:19.032Z,1032.75
2019-02-22T01:37:18.820Z,1032.75
2019-02-22T01:38:18.690Z,1032.74
2019-02-22T01:39:18.711Z,1032.77
2019-02-22T01:40:18.876Z,1032.79
2019-02-22T01:41:18.713Z,1032.81
2019-02-22T01:42:18.781Z,1032.82
2019-02-22T01:43:19.010Z,1032.82
2019-02-22T01:44:20.210Z,1032.83
2019-02-22T01:45:19.225Z,1032.84
2019-02-22T01:46:18.753Z,1032.81
2019-02-22T01:47:19.219Z,1032.79
2019-02-22T01:48:19.021Z,1032.78
2019-02-22T01:49:19.194Z,1032.81
2019-02-22T01:50:19.163Z,1032.82
2019-02-22T01:51:19.192Z,1032.87
2019-02-22T01:52:19.066Z,1032.88
2019-02-22T01:53:19.307Z,1032.92
2019-02-22T01:54:19.694Z,1032.94
2019-02-22T01:55:19.080Z,1032.92
2019-02-22T01:56:18.865Z,1032.88
2019-02-22T01:57:18.674Z,1032.92
2019-02-22T01:58:18.749Z,1032.93
2019-02-22T01:59:18.844Z,1032.94
2019-02-22T02:00:20.757Z,1032.95
2019-02-22T02:01:19.170Z,1032.92
2019-02-22T02:02:18.639Z,1032.91
2019-02-22T02:03:19.029Z,1032.9
2019-02-22T02:04:18.823Z,1032.92
2019-02-22T02:05:18.748Z,1032.95
2019-02-22T02:06:19.150Z,1033
2019-02-22T02:07:18.747Z,1033.02
2019-02-22T02:08:18.834Z,1033.05
2019-02-22T02:09:19.132Z,1033.08
2019-02-22T02:10:18.720Z,1033.07
2019-02-22T02:11:18.890Z,1033.13
2019-02-22T02:12:18.995Z,1033.14
2019-02-22T02:13:18.991Z,1033.18
2019-02-22T02:14:19.226Z,1033.15
2019-02-22T02:15:19.046Z,1033.17
2019-02-22T02:16:18.982Z,1033.12
2019-02-22T02:17:19.124Z,1033.16
2019-02-22T02:18:19.652Z,1033.15
2019-02-22T02:19:18.781Z,1033.11
2019-02-22T02:20:19.969Z,1033.11
2019-02-22T02:21:19.149Z,1033.13
2019-02-22T02:22:19.397Z,1033.12
2019-02-22T02:23:20.784Z,1033.12
2019-02-22T02:24:18.807Z,1033.14
2019-02-22T02:25:19.709Z,1033.15
2019-02-22T02:26:19.912Z,1033.19
2019-02-22T02:27:18.630Z,1033.15
2019-02-22T02:28:19.766Z,1033.16
2019-02-22T02:29:19.112Z,1033.17
2019-02-22T02:30:19.255Z,1033.11
2019-02-22T02:31:19.073Z,1033.09
2019-02-22T02:32:19.247Z,1033.1
2019-02-22T02:33:19.256Z,1033.13
2019-02-22T02:34:20.791Z,1033.18
2019-02-22T02:35:18.792Z,1033.15
2019-02-22T02:36:19.071Z,1033.18
2019-02-22T02:37:19.292Z,1033.2
2019-02-22T02:38:20.950Z,1033.18
2019-02-22T02:39:18.917Z,1033.19
2019-02-22T02:40:19.526Z,1033.18
2019-02-22T02:41:19.111Z,1033.17
2019-02-22T02:42:19.057Z,1033.18
2019-02-22T02:43:19.156Z,1033.17
2019-02-22T02:44:18.929Z,1033.2
2019-02-22T02:45:19.453Z,1033.24
2019-02-22T02:46:19.439Z,1033.23
2019-02-22T02:47:19.907Z,1033.24
2019-02-22T02:48:19.873Z,1033.2
2019-02-22T02:49:18.977Z,1033.23
2019-02-22T02:50:18.945Z,1033.25
2019-02-22T02:51:19.845Z,1033.22
2019-02-22T02:52:19.576Z,1033.22
2019-02-22T02:53:19.172Z,1033.22
2019-02-22T02:54:19.395Z,1033.2
2019-02-22T02:55:19.218Z,1033.17
2019-02-22T02:56:20.736Z,1033.21
2019-02-22T02:57:19.504Z,1033.22
2019-02-22T02:58:19.131Z,1033.2
2019-02-22T02:59:19.430Z,1033.2
2019-02-22T03:00:18.892Z,1033.2
2019-02-22T03:01:19.047Z,1033.23
2019-02-22T03:02:19.148Z,1033.28
2019-02-22T03:03:19.367Z,1033.28
2019-02-22T03:04:20.638Z,1033.29
2019-02-22T03:05:18.925Z,1033.25
2019-02-22T03:06:18.781Z,1033.22
2019-02-22T03:07:20.689Z,1033.2
2019-02-22T03:08:19.615Z,1033.2
2019-02-22T03:09:18.985Z,1033.17
2019-02-22T03:10:19.035Z,1033.18
2019-02-22T03:11:21.555Z,1033.16
2019-02-22T03:12:19.086Z,1033.18
2019-02-22T03:13:18.739Z,1033.21
2019-02-22T03:14:19.318Z,1033.22
2019-02-22T03:15:19.726Z,1033.18
2019-02-22T03:16:18.987Z,1033.19
2019-02-22T03:17:19.039Z,1033.18
2019-02-22T03:18:18.950Z,1033.21
2019-02-22T03:19:19.068Z,1033.18
2019-02-22T03:20:20.611Z,1033.17
2019-02-22T03:21:19.083Z,1033.18
2019-02-22T03:22:19.799Z,1033.16
2019-02-22T03:23:19.406Z,1033.15
2019-02-22T03:24:19.293Z,1033.21
2019-02-22T03:25:19.052Z,1033.2
2019-02-22T03:26:19.021Z,1033.21
2019-02-22T03:27:19.167Z,1033.19
2019-02-22T03:28:19.012Z,1033.22
2019-02-22T03:29:18.935Z,1033.2
2019-02-22T03:30:19.902Z,1033.17
2019-02-22T03:31:19.723Z,1033.18
2019-02-22T03:32:18.720Z,1033.17
2019-02-22T03:33:18.969Z,1033.18
2019-02-22T03:34:19.999Z,1033.14
2019-02-22T03:35:19.053Z,1033.12
2019-02-22T03:36:19.008Z,1033.15
2019-02-22T03:37:19.205Z,1033.13
2019-02-22T03:38:19.105Z,1033.12
2019-02-22T03:39:19.219Z,1033.16
2019-02-22T03:40:18.729Z,1033.18
2019-02-22T03:41:18.850Z,1033.2
2019-02-22T03:42:19.271Z,1033.22
2019-02-22T03:43:18.949Z,1033.21
2019-02-22T03:44:18.786Z,1033.23
2019-02-22T03:45:19.168Z,1033.26
2019-02-22T03:46:18.967Z,1033.24
2019-02-22T03:47:19.067Z,1033.27
2019-02-22T03:48:19.209Z,1033.24
2019-02-22T03:49:18.962Z,1033.24
2019-02-22T03:50:19.198Z,1033.26
2019-02-22T03:51:19.413Z,1033.27
2019-02-22T03:52:19.520Z,1033.28
2019-02-22T03:53:19.198Z,1033.27
2019-02-22T03:54:19.222Z,1033.29
2019-02-22T03:55:19.223Z,1033.31
2019-02-22T03:56:19.038Z,1033.34
2019-02-22T03:57:19.938Z,1033.34
2019-02-22T03:58:19.064Z,1033.39
2019-02-22T03:59:19.163Z,1033.4
2019-02-22T04:00:19.887Z,1033.39
2019-02-22T04:01:20.638Z,1033.42
2019-02-22T04:02:18.965Z,1033.39
2019-02-22T04:03:19.060Z,1033.4
2019-02-22T04:04:19.106Z,1033.41
2019-02-22T04:05:18.987Z,1033.44
2019-02-22T04:06:19.299Z,1033.47
2019-02-22T04:07:19.217Z,1033.46
2019-02-22T04:08:19.121Z,1033.46
2019-02-22T04:09:19.191Z,1033.5
2019-02-22T04:10:19.223Z,1033.46
2019-02-22T04:11:19.042Z,1033.43
2019-02-22T04:12:19.983Z,1033.48
2019-02-22T04:13:18.877Z,1033.47
2019-02-22T04:14:19.748Z,1033.47
2019-02-22T04:15:19.077Z,1033.46
2019-02-22T04:16:18.801Z,1033.54
2019-02-22T04:17:20.709Z,1033.59
2019-02-22T04:18:19.585Z,1033.67
2019-02-22T04:19:19.326Z,1033.64
2019-02-22T04:20:18.996Z,1033.65
2019-02-22T04:21:18.884Z,1033.65
2019-02-22T04:22:18.930Z,1033.68
2019-02-22T04:23:19.236Z,1033.69
2019-02-22T04:24:18.952Z,1033.66
2019-02-22T04:25:19.087Z,1033.67
2019-02-22T04:26:18.955Z,1033.68
2019-02-22T04:27:18.798Z,1033.69
2019-02-22T04:28:19.653Z,1033.68
2019-02-22T04:29:19.154Z,1033.68
2019-02-22T04:30:18.674Z,1033.68
2019-02-22T04:31:19.095Z,1033.68
2019-02-22T04:32:19.076Z,1033.67
2019-02-22T04:33:19.100Z,1033.65
2019-02-22T04:34:19.305Z,1033.63
2019-02-22T04:35:19.703Z,1033.65
2019-02-22T04:36:19.326Z,1033.66
2019-02-22T04:37:19.113Z,1033.66
2019-02-22T04:38:18.940Z,1033.67
2019-02-22T04:39:18.917Z,1033.64
2019-02-22T04:40:19.053Z,1033.61
2019-02-22T04:41:19.230Z,1033.59
2019-02-22T04:42:18.948Z,1033.54
2019-02-22T04:43:18.971Z,1033.58
2019-02-22T04:44:20.754Z,1033.6
2019-02-22T04:45:18.957Z,1033.64
2019-02-22T04:46:19.399Z,1033.63
2019-02-22T04:47:18.974Z,1033.63
2019-02-22T04:48:19.116Z,1033.65
2019-02-22T04:49:19.097Z,1033.68
2019-02-22T04:50:19.125Z,1033.68
2019-02-22T04:51:18.846Z,1033.7
2019-02-22T04:52:18.929Z,1033.71
2019-02-22T04:53:18.961Z,1033.67
2019-02-22T04:54:19.041Z,1033.66
2019-02-22T04:55:19.629Z,1033.69
2019-02-22T04:56:19.236Z,1033.69
2019-02-22T04:57:19.248Z,1033.69
2019-02-22T04:58:18.757Z,1033.69
2019-02-22T04:59:18.985Z,1033.72
2019-02-22T05:00:18.648Z,1033.69
2019-02-22T05:01:19.111Z,1033.71
2019-02-22T05:02:19.055Z,1033.75
2019-02-22T05:03:19.097Z,1033.72
2019-02-22T05:04:19.034Z,1033.77
2019-02-22T05:05:18.702Z,1033.77
2019-02-22T05:06:18.677Z,1033.78
2019-02-22T05:07:18.941Z,1033.85
2019-02-22T05:08:18.877Z,1033.83
2019-02-22T05:09:18.712Z,1033.91
2019-02-22T05:10:18.878Z,1033.9
2019-02-22T05:11:19.106Z,1033.9
2019-02-22T05:12:18.702Z,1033.88
2019-02-22T05:13:19.250Z,1033.92
2019-02-22T05:14:18.874Z,1033.89
2019-02-22T05:15:18.859Z,1033.92
2019-02-22T05:16:19.088Z,1033.9
2019-02-22T05:17:19.005Z,1033.91
2019-02-22T05:18:19.935Z,1033.89
2019-02-22T05:19:18.899Z,1033.93
2019-02-22T05:20:19.380Z,1033.9
2019-02-22T05:21:19.131Z,1033.92
2019-02-22T05:22:18.754Z,1033.94
2019-02-22T05:23:19.255Z,1033.94
2019-02-22T05:24:18.854Z,1033.92
2019-02-22T05:25:19.340Z,1033.94
2019-02-22T05:26:18.912Z,1033.94
2019-02-22T05:27:19.314Z,1033.96
2019-02-22T05:28:20.929Z,1033.97
2019-02-22T05:29:20.635Z,1033.99
2019-02-22T05:30:19.320Z,1033.98
2019-02-22T05:31:18.772Z,1034.01
2019-02-22T05:32:19.095Z,1033.95
2019-02-22T05:33:19.555Z,1033.95
2019-02-22T05:34:18.646Z,1033.98
2019-02-22T05:35:19.208Z,1034.03
2019-02-22T05:36:19.269Z,1034
2019-02-22T05:37:18.786Z,1034
2019-02-22T05:38:18.945Z,1033.98
2019-02-22T05:39:19.880Z,1033.99
2019-02-22T05:40:19.252Z,1034.02
2019-02-22T05:41:19.137Z,1034
2019-02-22T05:42:23.557Z,1034.01
2019-02-22T05:43:19.090Z,1034.01
2019-02-22T05:44:19.016Z,1034.06
2019-02-22T05:45:18.955Z,1034.05
2019-02-22T05:46:19.419Z,1034.08
2019-02-22T05:47:19.203Z,1034.05
2019-02-22T05:48:18.815Z,1034.09
2019-02-22T05:49:22.792Z,1034.08
2019-02-22T05:50:19.110Z,1034.09
2019-02-22T05:51:18.942Z,1034.1
2019-02-22T05:52:20.617Z,1034.12
2019-02-22T05:53:18.985Z,1034.12
2019-02-22T05:54:18.708Z,1034.15
2019-02-22T05:55:18.688Z,1034.18
2019-02-22T05:56:20.647Z,1034.18
2019-02-22T05:57:18.814Z,1034.24
2019-02-22T05:58:19.265Z,1034.26
2019-02-22T05:59:18.822Z,1034.27
2019-02-22T06:00:19.207Z,1034.25
2019-02-22T06:01:20.707Z,1034.25
2019-02-22T06:02:19.737Z,1034.25
2019-02-22T06:03:19.036Z,1034.3
2019-02-22T06:04:18.782Z,1034.34
2019-02-22T06:05:20.525Z,1034.37
2019-02-22T06:06:19.054Z,1034.37
2019-02-22T06:07:19.254Z,1034.43
2019-02-22T06:08:18.885Z,1034.41
2019-02-22T06:09:18.922Z,1034.41
2019-02-22T06:10:19.167Z,1034.45
2019-02-22T06:11:20.716Z,1034.49
2019-02-22T06:12:19.122Z,1034.47
2019-02-22T06:13:18.862Z,1034.49
2019-02-22T06:14:19.200Z,1034.55
2019-02-22T06:15:19.081Z,1034.55
2019-02-22T06:16:18.665Z,1034.58
2019-02-22T06:17:19.054Z,1034.58
2019-02-22T06:18:19.322Z,1034.58
2019-02-22T06:19:18.810Z,1034.63
2019-02-22T06:20:18.893Z,1034.69
2019-02-22T06:21:19.182Z,1034.7
2019-02-22T06:22:30.189Z,1034.7
2019-02-22T06:23:19.915Z,1034.7
2019-02-22T06:24:19.700Z,1034.75
2019-02-22T06:25:18.788Z,1034.74
2019-02-22T06:26:18.866Z,1034.78
2019-02-22T06:27:19.985Z,1034.8
2019-02-22T06:28:18.657Z,1034.82
2019-02-22T06:29:19.094Z,1034.9
2019-02-22T06:30:18.815Z,1034.95
2019-02-22T06:31:18.901Z,1034.96
2019-02-22T06:32:19.773Z,1034.97
2019-02-22T06:33:18.912Z,1034.94
2019-02-22T06:34:18.790Z,1034.94
2019-02-22T06:35:19.032Z,1034.96
2019-02-22T06:36:18.950Z,1034.97
2019-02-22T06:37:19.065Z,1034.96
2019-02-22T06:38:19.988Z,1035
2019-02-22T06:39:20.551Z,1034.97
2019-02-22T06:40:18.703Z,1035
2019-02-22T06:41:18.793Z,1034.98
2019-02-22T06:42:18.576Z,1034.97
2019-02-22T06:43:18.966Z,1034.95
2019-02-22T06:44:18.704Z,1035
2019-02-22T06:45:19.953Z,1034.95
2019-02-22T06:46:18.796Z,1035
2019-02-22T06:47:21.933Z,1034.99
2019-02-22T06:48:18.892Z,1034.96
2019-02-22T06:49:18.792Z,1034.94
2019-02-22T06:50:18.928Z,1034.94
2019-02-22T06:51:18.795Z,1034.93
2019-02-22T06:52:19.465Z,1034.95
2019-02-22T06:53:19.611Z,1034.9
2019-02-22T06:54:19.262Z,1034.96
2019-02-22T06:55:18.898Z,1035.01
2019-02-22T06:56:18.734Z,1034.98
2019-02-22T06:57:19.062Z,1034.95
2019-02-22T06:58:19.517Z,1034.93
2019-02-22T06:59:19.126Z,1034.92
2019-02-22T07:00:19.020Z,1034.91
2019-02-22T07:01:18.889Z,1034.92
2019-02-22T07:02:19.255Z,1034.91
2019-02-22T07:03:19.123Z,1034.92
2019-02-22T07:04:19.821Z,1034.93
2019-02-22T07:05:19.673Z,1034.96
2019-02-22T07:06:20.129Z,1034.97
2019-02-22T07:07:20.502Z,1034.97
2019-02-22T07:08:19.484Z,1034.95
2019-02-22T07:09:18.988Z,1034.97
2019-02-22T07:10:18.720Z,1034.98
2019-02-22T07:11:18.856Z,1034.95
2019-02-22T07:12:18.890Z,1034.97
2019-02-22T07:13:18.949Z,1034.94
2019-02-22T07:14:19.001Z,1034.99
2019-02-22T07:15:19.114Z,1035.04
2019-02-22T07:16:18.977Z,1035.04
2019-02-22T07:17:19.107Z,1035.11
2019-02-22T07:18:19.032Z,1035.12
2019-02-22T07:19:18.786Z,1035.11
2019-02-22T07:20:18.962Z,1035.11
2019-02-22T07:21:19.413Z,1035.15
2019-02-22T07:22:18.597Z,1035.18
2019-02-22T07:23:18.806Z,1035.17
2019-02-22T07:24:19.456Z,1035.2
2019-02-22T07:25:19.096Z,1035.16
2019-02-22T07:26:19.087Z,1035.2
2019-02-22T07:27:18.789Z,1035.19
2019-02-22T07:28:20.554Z,1035.18
2019-02-22T07:29:19.143Z,1035.21
2019-02-22T07:30:20.667Z,1035.24
2019-02-22T07:31:20.271Z,1035.3
2019-02-22T07:32:19.192Z,1035.29
2019-02-22T07:33:19.648Z,1035.31
2019-02-22T07:34:18.696Z,1035.34
2019-02-22T07:35:18.947Z,1035.35
2019-02-22T07:36:18.982Z,1035.33
2019-02-22T07:37:18.972Z,1035.39
2019-02-22T07:38:19.318Z,1035.37
2019-02-22T07:39:28.409Z,1035.39
2019-02-22T07:40:20.250Z,1035.34
2019-02-22T07:41:18.891Z,1035.37
2019-02-22T07:42:18.860Z,1035.33
2019-02-22T07:43:18.830Z,1035.32
2019-02-22T07:44:18.784Z,1035.35
2019-02-22T07:45:19.317Z,1035.32
2019-02-22T07:46:18.738Z,1035.34
2019-02-22T07:47:18.722Z,1035.35
2019-02-22T07:48:18.841Z,1035.38
2019-02-22T07:49:18.920Z,1035.36
2019-02-22T07:50:18.963Z,1035.37
2019-02-22T07:51:18.718Z,1035.36
2019-02-22T07:52:19.434Z,1035.29
2019-02-22T07:53:20.493Z,1035.34
2019-02-22T07:54:18.794Z,1035.36
2019-02-22T07:55:19.014Z,1035.36
2019-02-22T07:56:19.424Z,1035.39
2019-02-22T07:57:18.668Z,1035.39
2019-02-22T07:58:18.462Z,1035.35
2019-02-22T07:59:18.543Z,1035.36
2019-02-22T08:00:18.784Z,1035.35
2019-02-22T08:01:18.905Z,1035.42
2019-02-22T08:02:19.274Z,1035.42
2019-02-22T08:03:20.677Z,1035.41
2019-02-22T08:04:18.877Z,1035.46
2019-02-22T08:05:18.750Z,1035.52
2019-02-22T08:06:19.079Z,1035.53
2019-02-22T08:07:20.557Z,1035.53
2019-02-22T08:08:19.065Z,1035.56
2019-02-22T08:09:18.849Z,1035.56
2019-02-22T08:10:18.989Z,1035.58
2019-02-22T08:11:18.843Z,1035.6
2019-02-22T08:12:19.758Z,1035.64
2019-02-22T08:13:20.646Z,1035.66
2019-02-22T08:14:19.043Z,1035.72
2019-02-22T08:15:19.434Z,1035.7
2019-02-22T08:16:18.634Z,1035.75
2019-02-22T08:17:20.088Z,1035.77
2019-02-22T08:18:19.072Z,1035.83
2019-02-22T08:19:18.858Z,1035.88
2019-02-22T08:20:19.178Z,1035.87
2019-02-22T08:21:19.179Z,1035.93
2019-02-22T08:22:20.946Z,1035.91
2019-02-22T08:23:18.881Z,1035.91
2019-02-22T08:24:18.612Z,1035.86
2019-02-22T08:25:18.747Z,1035.91
2019-02-22T08:26:18.729Z,1035.87
2019-02-22T08:27:19.081Z,1035.83
2019-02-22T08:28:19.099Z,1035.86
2019-02-22T08:29:19.454Z,1035.84
2019-02-22T08:30:18.733Z,1035.82
2019-02-22T08:31:18.842Z,1035.79
2019-02-22T08:32:18.939Z,1035.79
2019-02-22T08:33:19.161Z,1035.75
2019-02-22T08:34:20.403Z,1035.71
2019-02-22T08:35:18.767Z,1035.72
2019-02-22T08:36:18.855Z,1035.74
2019-02-22T08:37:18.690Z,1035.77
2019-02-22T08:38:19.077Z,1035.79
2019-02-22T08:39:18.997Z,1035.8
2019-02-22T08:40:18.933Z,1035.83
2019-02-22T08:41:18.772Z,1035.84
2019-02-22T08:42:18.816Z,1035.82
2019-02-22T08:43:18.936Z,1035.82
2019-02-22T08:44:18.821Z,1035.84
2019-02-22T08:45:19.655Z,1035.84
2019-02-22T08:46:18.963Z,1035.86
2019-02-22T08:47:18.901Z,1035.84
2019-02-22T08:48:19.562Z,1035.85
2019-02-22T08:49:19.287Z,1035.86
2019-02-22T08:50:18.844Z,1035.88
2019-02-22T08:51:19.109Z,1035.93
2019-02-22T08:52:19.082Z,1035.95
2019-02-22T08:53:19.212Z,1035.96
2019-02-22T08:54:19.419Z,1035.97
2019-02-22T08:55:18.822Z,1035.98
2019-02-22T08:56:19.921Z,1036.01
2019-02-22T08:57:18.932Z,1036.04
2019-02-22T08:58:18.686Z,1036.07
2019-02-22T08:59:19.034Z,1036.09
2019-02-22T09:00:18.653Z,1036.08
2019-02-22T09:01:18.949Z,1036.11
2019-02-22T09:02:18.960Z,1036.08
2019-02-22T09:03:18.821Z,1036.1
2019-02-22T09:04:19.416Z,1036.16
2019-02-22T09:05:18.828Z,1036.12
2019-02-22T09:06:18.604Z,1036.15
2019-02-22T09:07:19.425Z,1036.14
2019-02-22T09:08:18.820Z,1036.13
2019-02-22T09:09:18.736Z,1036.13
2019-02-22T09:10:19.158Z,1036.11
2019-02-22T09:11:18.907Z,1036.11
2019-02-22T09:12:18.983Z,1036.07
2019-02-22T09:13:19.064Z,1036.07
2019-02-22T09:14:18.837Z,1036.08
2019-02-22T09:15:18.846Z,1036.08
2019-02-22T09:16:18.973Z,1036.11
2019-02-22T09:17:19.175Z,1036.13
2019-02-22T09:18:19.402Z,1036.08
2019-02-22T09:19:19.701Z,1036.07
2019-02-22T09:20:18.765Z,1036.04
2019-02-22T09:21:19.419Z,1036.08
2019-02-22T09:22:23.501Z,1036.1
2019-02-22T09:23:19.219Z,1036.12
2019-02-22T09:24:19.447Z,1036.17
2019-02-22T09:25:18.737Z,1036.19
2019-02-22T09:26:18.920Z,1036.23
2019-02-22T09:27:19.047Z,1036.24
2019-02-22T09:28:18.691Z,1036.25
2019-02-22T09:29:19.146Z,1036.22
2019-02-22T09:30:19.182Z,1036.22
2019-02-22T09:31:18.805Z,1036.23
2019-02-22T09:32:19.014Z,1036.23
2019-02-22T09:33:19.078Z,1036.22
2019-02-22T09:34:19.011Z,1036.26
2019-02-22T09:35:19.027Z,1036.32
2019-02-22T09:36:19.125Z,1036.4
2019-02-22T09:37:20.487Z,1036.43
2019-02-22T09:38:18.716Z,1036.45
2019-02-22T09:39:18.754Z,1036.47
2019-02-22T09:40:19.135Z,1036.48
2019-02-22T09:41:20.141Z,1036.47
2019-02-22T09:42:18.860Z,1036.48
2019-02-22T09:43:18.850Z,1036.46
2019-02-22T09:44:18.903Z,1036.47
2019-02-22T09:45:18.768Z,1036.45
2019-02-22T09:46:18.662Z,1036.39
2019-02-22T09:47:18.840Z,1036.38
2019-02-22T09:48:18.800Z,1036.35
2019-02-22T09:49:19.024Z,1036.4
2019-02-22T09:50:19.340Z,1036.35
2019-02-22T09:51:18.985Z,1036.4
2019-02-22T09:52:18.543Z,1036.37
2019-02-22T09:53:20.589Z,1036.43
2019-02-22T09:54:18.596Z,1036.42
2019-02-22T09:55:18.748Z,1036.47
2019-02-22T09:56:19.754Z,1036.46
2019-02-22T09:57:18.842Z,1036.48
2019-02-22T09:58:20.526Z,1036.44
2019-02-22T09:59:18.874Z,1036.45
2019-02-22T10:00:18.758Z,1036.49
2019-02-22T10:01:19.428Z,1036.45
2019-02-22T10:02:18.817Z,1036.45
2019-02-22T10:03:19.522Z,1036.45
2019-02-22T10:04:19.068Z,1036.46
2019-02-22T10:05:19.036Z,1036.41
2019-02-22T10:06:18.620Z,1036.42
2019-02-22T10:07:19.136Z,1036.43
2019-02-22T10:08:19.105Z,1036.45
2019-02-22T10:09:18.717Z,1036.49
2019-02-22T10:10:18.762Z,1036.5
2019-02-22T10:11:19.062Z,1036.52
2019-02-22T10:12:19.334Z,1036.5
2019-02-22T10:13:19.306Z,1036.47
2019-02-22T10:14:20.644Z,1036.49
2019-02-22T10:15:19.037Z,1036.52
2019-02-22T10:16:19.085Z,1036.55
2019-02-22T10:17:18.702Z,1036.52
2019-02-22T10:18:18.724Z,1036.53
2019-02-22T10:19:18.818Z,1036.49
2019-02-22T10:20:18.850Z,1036.52
2019-02-22T10:21:19.021Z,1036.51
2019-02-22T10:22:19.063Z,1036.48
2019-02-22T10:23:18.948Z,1036.51
2019-02-22T10:24:18.944Z,1036.49
2019-02-22T10:25:20.284Z,1036.52
2019-02-22T10:26:21.711Z,1036.53
2019-02-22T10:27:18.759Z,1036.56
2019-02-22T10:28:18.899Z,1036.55
2019-02-22T10:29:19.082Z,1036.57
2019-02-22T10:30:18.639Z,1036.54
2019-02-22T10:31:18.632Z,1036.58
2019-02-22T10:32:19.801Z,1036.6
2019-02-22T10:33:18.793Z,1036.6
2019-02-22T10:34:18.645Z,1036.62
2019-02-22T10:35:18.690Z,1036.65
2019-02-22T10:36:18.873Z,1036.7
2019-02-22T10:37:18.644Z,1036.7
2019-02-22T10:38:18.795Z,1036.72
2019-02-22T10:39:18.708Z,1036.7
2019-02-22T10:40:18.718Z,1036.69
2019-02-22T10:41:19.140Z,1036.68
2019-02-22T10:42:18.976Z,1036.68
2019-02-22T10:43:19.005Z,1036.69
2019-02-22T10:44:18.729Z,1036.63
2019-02-22T10:45:18.939Z,1036.66
2019-02-22T10:46:18.912Z,1036.66
2019-02-22T10:47:20.477Z,1036.67
2019-02-22T10:48:19.695Z,1036.65
2019-02-22T10:49:18.858Z,1036.64
2019-02-22T10:50:20.485Z,1036.64
2019-02-22T10:51:18.716Z,1036.66
2019-02-22T10:52:19.159Z,1036.65
2019-02-22T10:53:18.769Z,1036.64
2019-02-22T10:54:18.757Z,1036.68
2019-02-22T10:55:19.281Z,1036.63
2019-02-22T10:56:18.591Z,1036.65
2019-02-22T10:57:18.985Z,1036.63
2019-02-22T10:58:18.886Z,1036.64
2019-02-22T10:59:18.773Z,1036.6
2019-02-22T11:00:18.707Z,1036.63
2019-02-22T11:01:19.046Z,1036.6
2019-02-22T11:02:18.659Z,1036.64
2019-02-22T11:03:18.914Z,1036.62
2019-02-22T11:04:19.169Z,1036.64
2019-02-22T11:05:19.653Z,1036.6
2019-02-22T11:06:18.924Z,1036.62
2019-02-22T11:07:18.734Z,1036.6
2019-02-22T11:08:18.953Z,1036.59
2019-02-22T11:09:19.766Z,1036.56
2019-02-22T11:10:19.652Z,1036.58
2019-02-22T11:11:18.616Z,1036.59
2019-02-22T11:12:19.403Z,1036.6
2019-02-22T11:13:21.664Z,1036.61
2019-02-22T11:14:29.692Z,1036.64
2019-02-22T11:15:18.797Z,1036.63
2019-02-22T11:16:19.126Z,1036.66
2019-02-22T11:17:18.928Z,1036.65
2019-02-22T11:18:19.006Z,1036.63
2019-02-22T11:19:18.788Z,1036.62
2019-02-22T11:20:20.525Z,1036.59
2019-02-22T11:21:19.134Z,1036.63
2019-02-22T11:22:18.733Z,1036.63
2019-02-22T11:23:19.098Z,1036.6
2019-02-22T11:24:20.555Z,1036.61
2019-02-22T11:25:18.445Z,1036.58
2019-02-22T11:26:19.026Z,1036.62
2019-02-22T11:27:19.371Z,1036.6
2019-02-22T11:28:18.694Z,1036.59
2019-02-22T11:29:20.515Z,1036.58
2019-02-22T11:30:19.589Z,1036.56
2019-02-22T11:31:18.797Z,1036.55
2019-02-22T11:32:19.775Z,1036.57
2019-02-22T11:33:19.435Z,1036.56
2019-02-22T11:34:18.846Z,1036.62
2019-02-22T11:35:18.675Z,1036.59
2019-02-22T11:36:19.167Z,1036.61
2019-02-22T11:37:18.746Z,1036.62
2019-02-22T11:38:18.872Z,1036.61
2019-02-22T11:39:18.754Z,1036.57
2019-02-22T11:40:19.073Z,1036.56
2019-02-22T11:41:18.692Z,1036.56
2019-02-22T11:42:20.422Z,1036.61
2019-02-22T11:43:18.679Z,1036.65
2019-02-22T11:44:18.751Z,1036.62
2019-02-22T11:45:18.745Z,1036.61
2019-02-22T11:46:19.010Z,1036.64
2019-02-22T11:47:18.713Z,1036.61
2019-02-22T11:48:18.826Z,1036.59
2019-02-22T11:49:18.519Z,1036.65
2019-02-22T11:50:18.370Z,1036.65
2019-02-22T11:51:18.905Z,1036.67
2019-02-22T11:52:18.744Z,1036.69
2019-02-22T11:53:18.582Z,1036.7
2019-02-22T11:54:18.888Z,1036.7
2019-02-22T11:55:20.580Z,1036.69
2019-02-22T11:56:18.854Z,1036.7
2019-02-22T11:57:20.557Z,1036.65
2019-02-22T11:58:19.085Z,1036.68
2019-02-22T11:59:18.687Z,1036.65
2019-02-22T12:00:18.652Z,1036.65
2019-02-22T12:01:19.033Z,1036.62
2019-02-22T12:02:18.836Z,1036.63
2019-02-22T12:03:25.375Z,1036.63
2019-02-22T12:04:19.201Z,1036.61
2019-02-22T12:05:18.413Z,1036.65
2019-02-22T12:06:18.857Z,1036.66
2019-02-22T12:07:19.077Z,1036.67
2019-02-22T12:08:18.880Z,1036.73
2019-02-22T12:09:18.798Z,1036.71
2019-02-22T12:10:18.823Z,1036.71